sensor_id;sensor_type;location;lat;lon;timestamp;temperature;humidity
76168;DHT22;64927;48.214;16.378;2023-07-08T00:00:17;22.20;42.50
76168;DHT22;64927;48.214;16.378;2023-07-08T00:02:46;22.20;42.40
76168;DHT22;64927;48.214;16.378;2023-07-08T00:05:14;22.20;42.50
76168;DHT22;64927;48.214;16.378;2023-07-08T00:07:40;22.20;42.90
76168;DHT22;64927;48.214;16.378;2023-07-08T00:10:21;22.20;42.80
76168;DHT22;64927;48.214;16.378;2023-07-08T00:12:52;22.20;42.70
76168;DHT22;64927;48.214;16.378;2023-07-08T00:15:21;22.20;42.70
76168;DHT22;64927;48.214;16.378;2023-07-08T00:17:50;22.10;42.80
76168;DHT22;64927;48.214;16.378;2023-07-08T00:20:41;22.10;42.90
76168;DHT22;64927;48.214;16.378;2023-07-08T00:23:09;22.10;42.70
76168;DHT22;64927;48.214;16.378;2023-07-08T00:25:39;22.20;42.50
76168;DHT22;64927;48.214;16.378;2023-07-08T00:28:18;22.10;42.90
76168;DHT22;64927;48.214;16.378;2023-07-08T00:30:48;22.10;43.00
76168;DHT22;64927;48.214;16.378;2023-07-08T00:33:13;22.00;42.70
76168;DHT22;64927;48.214;16.378;2023-07-08T00:35:41;22.10;42.70
76168;DHT22;64927;48.214;16.378;2023-07-08T00:38:24;22.10;42.80
76168;DHT22;64927;48.214;16.378;2023-07-08T00:41:04;22.00;43.10
76168;DHT22;64927;48.214;16.378;2023-07-08T00:43:56;22.00;43.50
76168;DHT22;64927;48.214;16.378;2023-07-08T00:51:36;21.90;43.50
76168;DHT22;64927;48.214;16.378;2023-07-08T00:54:03;21.90;43.70
76168;DHT22;64927;48.214;16.378;2023-07-08T00:56:49;21.80;43.60
76168;DHT22;64927;48.214;16.378;2023-07-08T00:59:29;21.80;43.50
76168;DHT22;64927;48.214;16.378;2023-07-08T01:01:57;21.80;43.60
76168;DHT22;64927;48.214;16.378;2023-07-08T01:04:34;21.90;43.80
76168;DHT22;64927;48.214;16.378;2023-07-08T01:07:02;21.90;43.70
76168;DHT22;64927;48.214;16.378;2023-07-08T01:09:36;21.80;43.80
76168;DHT22;64927;48.214;16.378;2023-07-08T01:12:06;21.80;44.00
76168;DHT22;64927;48.214;16.378;2023-07-08T01:14:37;21.70;44.30
76168;DHT22;64927;48.214;16.378;2023-07-08T01:17:04;21.70;45.80
76168;DHT22;64927;48.214;16.378;2023-07-08T01:19:30;21.80;46.20
76168;DHT22;64927;48.214;16.378;2023-07-08T01:22:03;21.70;46.10
76168;DHT22;64927;48.214;16.378;2023-07-08T01:24:31;21.60;46.70
76168;DHT22;64927;48.214;16.378;2023-07-08T01:26:57;21.60;47.10
76168;DHT22;64927;48.214;16.378;2023-07-08T01:29:26;21.50;46.10
76168;DHT22;64927;48.214;16.378;2023-07-08T01:31:54;21.40;46.30
76168;DHT22;64927;48.214;16.378;2023-07-08T01:34:19;21.40;46.00
76168;DHT22;64927;48.214;16.378;2023-07-08T01:36:49;21.40;45.60
76168;DHT22;64927;48.214;16.378;2023-07-08T01:39:18;21.40;45.40
76168;DHT22;64927;48.214;16.378;2023-07-08T01:41:45;21.30;45.90
76168;DHT22;64927;48.214;16.378;2023-07-08T01:44:28;21.20;45.90
76168;DHT22;64927;48.214;16.378;2023-07-08T01:46:56;21.20;46.00
76168;DHT22;64927;48.214;16.378;2023-07-08T01:49:23;21.30;46.20
76168;DHT22;64927;48.214;16.378;2023-07-08T01:51:52;21.30;45.90
76168;DHT22;64927;48.214;16.378;2023-07-08T01:54:18;21.30;45.90
76168;DHT22;64927;48.214;16.378;2023-07-08T01:56:43;21.30;45.80
76168;DHT22;64927;48.214;16.378;2023-07-08T01:59:09;21.30;45.90
76168;DHT22;64927;48.214;16.378;2023-07-08T02:01:34;21.20;45.90
76168;DHT22;64927;48.214;16.378;2023-07-08T02:04:00;21.20;46.00
76168;DHT22;64927;48.214;16.378;2023-07-08T02:06:25;21.10;46.20
76168;DHT22;64927;48.214;16.378;2023-07-08T02:08:51;21.10;46.50
76168;DHT22;64927;48.214;16.378;2023-07-08T02:11:17;21.10;46.40
76168;DHT22;64927;48.214;16.378;2023-07-08T02:13:43;21.10;46.70
76168;DHT22;64927;48.214;16.378;2023-07-08T02:16:08;21.10;46.90
76168;DHT22;64927;48.214;16.378;2023-07-08T02:18:34;21.10;47.00
76168;DHT22;64927;48.214;16.378;2023-07-08T02:21:00;21.00;47.20
76168;DHT22;64927;48.214;16.378;2023-07-08T02:23:26;21.00;47.60
76168;DHT22;64927;48.214;16.378;2023-07-08T02:25:53;20.90;48.10
76168;DHT22;64927;48.214;16.378;2023-07-08T02:28:19;20.80;48.70
76168;DHT22;64927;48.214;16.378;2023-07-08T02:30:47;20.80;48.10
76168;DHT22;64927;48.214;16.378;2023-07-08T02:33:14;20.80;48.70
76168;DHT22;64927;48.214;16.378;2023-07-08T02:35:42;20.70;48.50
76168;DHT22;64927;48.214;16.378;2023-07-08T02:38:08;20.70;48.80
76168;DHT22;64927;48.214;16.378;2023-07-08T02:40:33;20.70;48.50
76168;DHT22;64927;48.214;16.378;2023-07-08T02:42:59;20.70;48.50
76168;DHT22;64927;48.214;16.378;2023-07-08T02:45:25;20.70;48.40
76168;DHT22;64927;48.214;16.378;2023-07-08T02:47:50;20.70;48.10
76168;DHT22;64927;48.214;16.378;2023-07-08T02:50:16;20.70;47.60
76168;DHT22;64927;48.214;16.378;2023-07-08T02:52:42;20.70;47.30
76168;DHT22;64927;48.214;16.378;2023-07-08T02:55:10;20.70;47.20
76168;DHT22;64927;48.214;16.378;2023-07-08T02:57:36;20.70;47.40
76168;DHT22;64927;48.214;16.378;2023-07-08T03:00:03;20.70;47.60
76168;DHT22;64927;48.214;16.378;2023-07-08T03:02:34;20.70;48.00
76168;DHT22;64927;48.214;16.378;2023-07-08T03:05:02;20.60;48.10
76168;DHT22;64927;48.214;16.378;2023-07-08T03:07:30;20.70;47.90
76168;DHT22;64927;48.214;16.378;2023-07-08T03:09:56;20.80;47.80
76168;DHT22;64927;48.214;16.378;2023-07-08T03:12:21;20.80;48.50
76168;DHT22;64927;48.214;16.378;2023-07-08T03:14:47;20.70;48.50
76168;DHT22;64927;48.214;16.378;2023-07-08T03:17:12;20.70;49.20
76168;DHT22;64927;48.214;16.378;2023-07-08T03:19:43;20.70;49.10
76168;DHT22;64927;48.214;16.378;2023-07-08T03:22:08;20.70;49.70
76168;DHT22;64927;48.214;16.378;2023-07-08T03:24:34;20.70;50.00
76168;DHT22;64927;48.214;16.378;2023-07-08T03:27:00;20.70;50.30
76168;DHT22;64927;48.214;16.378;2023-07-08T03:29:30;20.70;50.80
76168;DHT22;64927;48.214;16.378;2023-07-08T03:31:56;20.70;51.10
76168;DHT22;64927;48.214;16.378;2023-07-08T03:34:23;20.70;51.60
76168;DHT22;64927;48.214;16.378;2023-07-08T03:36:56;20.70;52.70
76168;DHT22;64927;48.214;16.378;2023-07-08T03:39:23;20.80;52.90
76168;DHT22;64927;48.214;16.378;2023-07-08T03:41:50;20.90;53.40
76168;DHT22;64927;48.214;16.378;2023-07-08T03:44:16;20.90;53.40
76168;DHT22;64927;48.214;16.378;2023-07-08T03:46:43;21.00;53.00
76168;DHT22;64927;48.214;16.378;2023-07-08T03:49:10;21.00;51.90
76168;DHT22;64927;48.214;16.378;2023-07-08T03:51:39;21.00;50.80
76168;DHT22;64927;48.214;16.378;2023-07-08T03:54:08;21.00;49.60
76168;DHT22;64927;48.214;16.378;2023-07-08T03:56:37;21.00;48.00
76168;DHT22;64927;48.214;16.378;2023-07-08T03:59:03;21.00;48.00
76168;DHT22;64927;48.214;16.378;2023-07-08T04:01:28;21.00;48.10
76168;DHT22;64927;48.214;16.378;2023-07-08T04:03:56;21.10;47.70
76168;DHT22;64927;48.214;16.378;2023-07-08T04:06:22;21.10;47.60
76168;DHT22;64927;48.214;16.378;2023-07-08T04:08:48;21.00;47.50
76168;DHT22;64927;48.214;16.378;2023-07-08T04:11:17;21.00;47.00
76168;DHT22;64927;48.214;16.378;2023-07-08T04:13:43;21.00;46.20
76168;DHT22;64927;48.214;16.378;2023-07-08T04:16:19;21.10;46.30
76168;DHT22;64927;48.214;16.378;2023-07-08T04:18:45;21.20;46.10
76168;DHT22;64927;48.214;16.378;2023-07-08T04:21:16;21.30;46.20
76168;DHT22;64927;48.214;16.378;2023-07-08T04:23:42;21.20;46.10
76168;DHT22;64927;48.214;16.378;2023-07-08T04:26:08;21.30;45.40
76168;DHT22;64927;48.214;16.378;2023-07-08T04:28:34;21.30;44.50
76168;DHT22;64927;48.214;16.378;2023-07-08T04:31:00;21.40;44.70
76168;DHT22;64927;48.214;16.378;2023-07-08T04:33:26;21.40;45.30
76168;DHT22;64927;48.214;16.378;2023-07-08T04:35:51;21.60;45.00
76168;DHT22;64927;48.214;16.378;2023-07-08T04:38:25;21.70;45.10
76168;DHT22;64927;48.214;16.378;2023-07-08T04:40:54;21.90;45.50
76168;DHT22;64927;48.214;16.378;2023-07-08T04:43:22;22.10;44.30
76168;DHT22;64927;48.214;16.378;2023-07-08T04:45:52;22.10;43.80
76168;DHT22;64927;48.214;16.378;2023-07-08T04:48:20;22.20;44.10
76168;DHT22;64927;48.214;16.378;2023-07-08T04:50:49;22.20;43.70
76168;DHT22;64927;48.214;16.378;2023-07-08T04:53:15;22.10;43.70
76168;DHT22;64927;48.214;16.378;2023-07-08T04:55:44;22.10;44.60
76168;DHT22;64927;48.214;16.378;2023-07-08T04:58:10;22.10;44.90
76168;DHT22;64927;48.214;16.378;2023-07-08T05:00:36;22.20;45.00
76168;DHT22;64927;48.214;16.378;2023-07-08T05:03:02;22.30;44.90
76168;DHT22;64927;48.214;16.378;2023-07-08T05:05:27;22.30;44.80
76168;DHT22;64927;48.214;16.378;2023-07-08T05:07:53;22.40;45.00
76168;DHT22;64927;48.214;16.378;2023-07-08T05:10:19;22.40;45.50
76168;DHT22;64927;48.214;16.378;2023-07-08T05:12:47;22.40;45.40
76168;DHT22;64927;48.214;16.378;2023-07-08T05:15:14;22.50;46.10
76168;DHT22;64927;48.214;16.378;2023-07-08T05:17:40;22.60;46.90
76168;DHT22;64927;48.214;16.378;2023-07-08T05:20:10;22.60;46.70
76168;DHT22;64927;48.214;16.378;2023-07-08T05:22:36;22.70;46.70
76168;DHT22;64927;48.214;16.378;2023-07-08T05:25:02;22.80;46.80
76168;DHT22;64927;48.214;16.378;2023-07-08T05:27:29;23.00;47.70
76168;DHT22;64927;48.214;16.378;2023-07-08T05:30:01;23.00;46.00
76168;DHT22;64927;48.214;16.378;2023-07-08T05:32:28;23.00;46.10
76168;DHT22;64927;48.214;16.378;2023-07-08T05:34:54;23.10;46.30
76168;DHT22;64927;48.214;16.378;2023-07-08T05:37:20;23.00;45.90
76168;DHT22;64927;48.214;16.378;2023-07-08T05:39:53;23.00;45.90
76168;DHT22;64927;48.214;16.378;2023-07-08T05:42:22;23.10;46.30
76168;DHT22;64927;48.214;16.378;2023-07-08T05:44:48;23.10;45.40
76168;DHT22;64927;48.214;16.378;2023-07-08T05:47:14;23.30;46.40
76168;DHT22;64927;48.214;16.378;2023-07-08T05:49:40;23.50;44.80
76168;DHT22;64927;48.214;16.378;2023-07-08T05:52:06;23.60;43.90
76168;DHT22;64927;48.214;16.378;2023-07-08T05:54:37;23.50;44.30
76168;DHT22;64927;48.214;16.378;2023-07-08T05:57:04;23.60;44.20
76168;DHT22;64927;48.214;16.378;2023-07-08T05:59:29;23.80;44.20
76168;DHT22;64927;48.214;16.378;2023-07-08T06:01:55;24.00;43.30
76168;DHT22;64927;48.214;16.378;2023-07-08T06:04:21;24.20;43.40
76168;DHT22;64927;48.214;16.378;2023-07-08T06:06:47;24.50;42.50
76168;DHT22;64927;48.214;16.378;2023-07-08T06:09:13;24.50;41.80
76168;DHT22;64927;48.214;16.378;2023-07-08T06:11:38;24.80;41.80
76168;DHT22;64927;48.214;16.378;2023-07-08T06:14:06;24.80;40.80
76168;DHT22;64927;48.214;16.378;2023-07-08T06:16:32;25.10;40.30
76168;DHT22;64927;48.214;16.378;2023-07-08T06:19:00;25.40;40.70
76168;DHT22;64927;48.214;16.378;2023-07-08T06:21:25;25.70;37.70
76168;DHT22;64927;48.214;16.378;2023-07-08T06:23:51;25.80;38.10
76168;DHT22;64927;48.214;16.378;2023-07-08T06:26:17;26.10;37.00
76168;DHT22;64927;48.214;16.378;2023-07-08T06:28:42;26.10;36.30
76168;DHT22;64927;48.214;16.378;2023-07-08T06:31:08;26.30;36.50
76168;DHT22;64927;48.214;16.378;2023-07-08T06:33:36;26.80;36.50
76168;DHT22;64927;48.214;16.378;2023-07-08T06:36:01;27.00;34.80
76168;DHT22;64927;48.214;16.378;2023-07-08T06:38:27;27.10;34.40
76168;DHT22;64927;48.214;16.378;2023-07-08T06:40:53;27.20;34.10
76168;DHT22;64927;48.214;16.378;2023-07-08T06:43:18;27.50;33.90
76168;DHT22;64927;48.214;16.378;2023-07-08T06:45:44;27.60;33.50
76168;DHT22;64927;48.214;16.378;2023-07-08T06:48:10;27.50;33.70
76168;DHT22;64927;48.214;16.378;2023-07-08T06:50:35;27.50;33.40
76168;DHT22;64927;48.214;16.378;2023-07-08T06:53:01;27.60;33.40
76168;DHT22;64927;48.214;16.378;2023-07-08T06:55:26;27.90;33.50
76168;DHT22;64927;48.214;16.378;2023-07-08T06:57:52;27.90;33.60
76168;DHT22;64927;48.214;16.378;2023-07-08T07:00:18;28.30;33.10
76168;DHT22;64927;48.214;16.378;2023-07-08T07:02:44;28.60;32.20
76168;DHT22;64927;48.214;16.378;2023-07-08T07:05:09;28.70;32.10
76168;DHT22;64927;48.214;16.378;2023-07-08T07:07:35;28.60;32.30
76168;DHT22;64927;48.214;16.378;2023-07-08T07:10:01;28.50;32.80
76168;DHT22;64927;48.214;16.378;2023-07-08T07:12:28;28.70;32.90
76168;DHT22;64927;48.214;16.378;2023-07-08T07:14:53;28.80;32.30
76168;DHT22;64927;48.214;16.378;2023-07-08T07:17:22;28.70;32.20
76168;DHT22;64927;48.214;16.378;2023-07-08T07:19:47;28.40;33.40
76168;DHT22;64927;48.214;16.378;2023-07-08T07:22:13;28.70;32.80
76168;DHT22;64927;48.214;16.378;2023-07-08T07:24:39;28.70;32.50
76168;DHT22;64927;48.214;16.378;2023-07-08T07:27:08;29.00;32.60
76168;DHT22;64927;48.214;16.378;2023-07-08T07:29:45;29.00;32.30
76168;DHT22;64927;48.214;16.378;2023-07-08T07:32:12;29.20;32.40
76168;DHT22;64927;48.214;16.378;2023-07-08T07:34:38;29.40;31.60
76168;DHT22;64927;48.214;16.378;2023-07-08T07:37:11;29.20;31.50
76168;DHT22;64927;48.214;16.378;2023-07-08T07:39:37;29.10;31.90
76168;DHT22;64927;48.214;16.378;2023-07-08T07:42:03;29.00;31.70
76168;DHT22;64927;48.214;16.378;2023-07-08T07:44:28;28.80;32.30
76168;DHT22;64927;48.214;16.378;2023-07-08T07:46:54;28.60;33.00
76168;DHT22;64927;48.214;16.378;2023-07-08T07:49:20;28.10;33.30
76168;DHT22;64927;48.214;16.378;2023-07-08T07:51:46;28.30;33.60
76168;DHT22;64927;48.214;16.378;2023-07-08T07:54:11;28.40;33.60
76168;DHT22;64927;48.214;16.378;2023-07-08T07:56:39;28.70;33.30
76168;DHT22;64927;48.214;16.378;2023-07-08T07:59:05;28.80;33.00
76168;DHT22;64927;48.214;16.378;2023-07-08T08:01:30;28.50;33.70
76168;DHT22;64927;48.214;16.378;2023-07-08T08:03:56;28.70;34.40
76168;DHT22;64927;48.214;16.378;2023-07-08T08:06:22;29.10;33.40
76168;DHT22;64927;48.214;16.378;2023-07-08T08:08:48;29.60;32.50
76168;DHT22;64927;48.214;16.378;2023-07-08T08:11:15;29.80;32.60
76168;DHT22;64927;48.214;16.378;2023-07-08T08:13:41;29.90;31.60
76168;DHT22;64927;48.214;16.378;2023-07-08T08:16:06;29.30;31.80
76168;DHT22;64927;48.214;16.378;2023-07-08T08:18:34;29.40;32.80
76168;DHT22;64927;48.214;16.378;2023-07-08T08:20:59;29.70;31.70
76168;DHT22;64927;48.214;16.378;2023-07-08T08:23:27;29.60;31.70
76168;DHT22;64927;48.214;16.378;2023-07-08T08:25:53;29.80;31.50
76168;DHT22;64927;48.214;16.378;2023-07-08T08:28:18;29.90;30.90
76168;DHT22;64927;48.214;16.378;2023-07-08T08:30:48;29.80;30.60
76168;DHT22;64927;48.214;16.378;2023-07-08T08:33:14;29.70;31.30
76168;DHT22;64927;48.214;16.378;2023-07-08T08:35:42;29.50;31.70
76168;DHT22;64927;48.214;16.378;2023-07-08T08:38:07;29.70;31.60
76168;DHT22;64927;48.214;16.378;2023-07-08T08:40:33;29.90;31.40
76168;DHT22;64927;48.214;16.378;2023-07-08T08:43:23;30.00;30.10
76168;DHT22;64927;48.214;16.378;2023-07-08T08:45:56;30.00;31.30
76168;DHT22;64927;48.214;16.378;2023-07-08T08:48:25;29.80;30.30
76168;DHT22;64927;48.214;16.378;2023-07-08T08:50:56;29.60;31.40
76168;DHT22;64927;48.214;16.378;2023-07-08T08:53:25;29.90;30.10
76168;DHT22;64927;48.214;16.378;2023-07-08T08:56:00;30.40;30.20
76168;DHT22;64927;48.214;16.378;2023-07-08T09:01:09;30.60;29.90
76168;DHT22;64927;48.214;16.378;2023-07-08T09:06:32;30.90;28.80
76168;DHT22;64927;48.214;16.378;2023-07-08T09:09:30;30.90;29.40
76168;DHT22;64927;48.214;16.378;2023-07-08T09:12:04;31.10;29.80
76168;DHT22;64927;48.214;16.378;2023-07-08T09:14:34;31.10;29.20
76168;DHT22;64927;48.214;16.378;2023-07-08T09:17:23;31.40;28.90
76168;DHT22;64927;48.214;16.378;2023-07-08T09:25:33;31.30;29.10
76168;DHT22;64927;48.214;16.378;2023-07-08T09:27:59;30.80;29.30
76168;DHT22;64927;48.214;16.378;2023-07-08T09:30:25;30.40;30.00
76168;DHT22;64927;48.214;16.378;2023-07-08T09:32:54;30.70;30.10
76168;DHT22;64927;48.214;16.378;2023-07-08T09:35:25;31.00;28.80
76168;DHT22;64927;48.214;16.378;2023-07-08T09:37:51;31.10;29.10
76168;DHT22;64927;48.214;16.378;2023-07-08T09:40:23;31.40;28.70
76168;DHT22;64927;48.214;16.378;2023-07-08T09:45:45;31.90;28.10
76168;DHT22;64927;48.214;16.378;2023-07-08T09:48:23;32.10;27.20
76168;DHT22;64927;48.214;16.378;2023-07-08T09:50:51;31.90;27.30
76168;DHT22;64927;48.214;16.378;2023-07-08T09:53:17;31.70;28.10
76168;DHT22;64927;48.214;16.378;2023-07-08T09:55:44;31.70;27.70
76168;DHT22;64927;48.214;16.378;2023-07-08T09:58:29;31.70;27.70
76168;DHT22;64927;48.214;16.378;2023-07-08T10:01:00;31.60;28.10
76168;DHT22;64927;48.214;16.378;2023-07-08T10:03:29;31.60;27.50
76168;DHT22;64927;48.214;16.378;2023-07-08T10:05:58;31.40;27.70
76168;DHT22;64927;48.214;16.378;2023-07-08T10:08:36;31.30;27.80
76168;DHT22;64927;48.214;16.378;2023-07-08T10:11:26;31.30;27.50
76168;DHT22;64927;48.214;16.378;2023-07-08T10:14:00;31.20;26.00
76168;DHT22;64927;48.214;16.378;2023-07-08T10:16:29;31.00;27.20
76168;DHT22;64927;48.214;16.378;2023-07-08T10:18:57;31.00;26.30
76168;DHT22;64927;48.214;16.378;2023-07-08T10:21:59;30.80;27.00
76168;DHT22;64927;48.214;16.378;2023-07-08T10:24:49;30.60;27.40
76168;DHT22;64927;48.214;16.378;2023-07-08T10:30:16;30.80;27.60
76168;DHT22;64927;48.214;16.378;2023-07-08T10:35:40;31.20;26.40
76168;DHT22;64927;48.214;16.378;2023-07-08T10:38:44;30.80;26.70
76168;DHT22;64927;48.214;16.378;2023-07-08T10:41:30;30.30;27.20
76168;DHT22;64927;48.214;16.378;2023-07-08T10:44:10;30.10;27.80
76168;DHT22;64927;48.214;16.378;2023-07-08T10:52:44;30.00;27.40
76168;DHT22;64927;48.214;16.378;2023-07-08T10:55:28;30.00;27.60
76168;DHT22;64927;48.214;16.378;2023-07-08T10:58:13;29.60;27.80
76168;DHT22;64927;48.214;16.378;2023-07-08T11:00:50;29.70;28.00
76168;DHT22;64927;48.214;16.378;2023-07-08T11:06:26;29.90;28.10
76168;DHT22;64927;48.214;16.378;2023-07-08T11:09:00;30.00;28.10
76168;DHT22;64927;48.214;16.378;2023-07-08T11:11:39;30.00;27.80
76168;DHT22;64927;48.214;16.378;2023-07-08T11:14:14;30.00;27.70
76168;DHT22;64927;48.214;16.378;2023-07-08T11:16:47;30.10;27.70
76168;DHT22;64927;48.214;16.378;2023-07-08T11:19:21;30.00;27.20
76168;DHT22;64927;48.214;16.378;2023-07-08T11:21:54;29.90;27.40
76168;DHT22;64927;48.214;16.378;2023-07-08T11:24:43;30.00;27.60
76168;DHT22;64927;48.214;16.378;2023-07-08T11:29:59;30.30;27.30
76168;DHT22;64927;48.214;16.378;2023-07-08T11:32:29;30.30;27.20
76168;DHT22;64927;48.214;16.378;2023-07-08T11:34:57;30.30;27.20
76168;DHT22;64927;48.214;16.378;2023-07-08T11:37:26;30.20;27.10
76168;DHT22;64927;48.214;16.378;2023-07-08T11:40:06;30.10;27.30
76168;DHT22;64927;48.214;16.378;2023-07-08T11:42:43;30.10;27.10
76168;DHT22;64927;48.214;16.378;2023-07-08T11:47:41;30.30;27.40
76168;DHT22;64927;48.214;16.378;2023-07-08T11:50:32;30.60;27.30
76168;DHT22;64927;48.214;16.378;2023-07-08T11:55:57;30.70;26.60
76168;DHT22;64927;48.214;16.378;2023-07-08T11:58:26;30.50;26.60
76168;DHT22;64927;48.214;16.378;2023-07-08T12:03:39;30.70;26.90
76168;DHT22;64927;48.214;16.378;2023-07-08T12:09:00;30.80;26.80
76168;DHT22;64927;48.214;16.378;2023-07-08T12:11:44;30.70;27.00
76168;DHT22;64927;48.214;16.378;2023-07-08T12:14:11;30.70;27.70
76168;DHT22;64927;48.214;16.378;2023-07-08T12:16:40;30.70;26.70
76168;DHT22;64927;48.214;16.378;2023-07-08T12:19:11;30.70;27.10
76168;DHT22;64927;48.214;16.378;2023-07-08T12:21:41;30.80;26.30
76168;DHT22;64927;48.214;16.378;2023-07-08T12:24:07;30.70;26.70
76168;DHT22;64927;48.214;16.378;2023-07-08T12:26:36;30.80;26.60
76168;DHT22;64927;48.214;16.378;2023-07-08T12:29:04;30.90;26.50
76168;DHT22;64927;48.214;16.378;2023-07-08T12:31:30;30.90;26.40
76168;DHT22;64927;48.214;16.378;2023-07-08T12:33:58;30.90;25.40
76168;DHT22;64927;48.214;16.378;2023-07-08T12:36:28;31.00;25.10
76168;DHT22;64927;48.214;16.378;2023-07-08T12:38:58;31.00;25.10
76168;DHT22;64927;48.214;16.378;2023-07-08T12:41:30;31.10;25.10
76168;DHT22;64927;48.214;16.378;2023-07-08T12:43:57;31.10;25.00
76168;DHT22;64927;48.214;16.378;2023-07-08T12:46:25;31.30;24.80
76168;DHT22;64927;48.214;16.378;2023-07-08T12:48:51;31.60;24.80
76168;DHT22;64927;48.214;16.378;2023-07-08T12:51:19;31.80;24.40
76168;DHT22;64927;48.214;16.378;2023-07-08T12:53:49;32.00;24.00
76168;DHT22;64927;48.214;16.378;2023-07-08T12:56:15;32.10;24.00
76168;DHT22;64927;48.214;16.378;2023-07-08T12:58:46;32.10;23.80
76168;DHT22;64927;48.214;16.378;2023-07-08T13:01:21;31.90;23.80
76168;DHT22;64927;48.214;16.378;2023-07-08T13:03:50;31.70;24.10
76168;DHT22;64927;48.214;16.378;2023-07-08T13:06:21;31.50;24.20
76168;DHT22;64927;48.214;16.378;2023-07-08T13:08:48;31.70;24.10
76168;DHT22;64927;48.214;16.378;2023-07-08T13:11:16;31.60;24.50
76168;DHT22;64927;48.214;16.378;2023-07-08T13:14:11;31.50;23.90
76168;DHT22;64927;48.214;16.378;2023-07-08T13:16:37;31.20;24.60
76168;DHT22;64927;48.214;16.378;2023-07-08T13:19:03;31.20;24.80
76168;DHT22;64927;48.214;16.378;2023-07-08T13:21:30;31.10;25.00
76168;DHT22;64927;48.214;16.378;2023-07-08T13:23:57;31.10;24.90
76168;DHT22;64927;48.214;16.378;2023-07-08T13:26:27;31.10;24.70
76168;DHT22;64927;48.214;16.378;2023-07-08T13:29:13;31.10;24.70
76168;DHT22;64927;48.214;16.378;2023-07-08T13:31:43;31.40;24.70
76168;DHT22;64927;48.214;16.378;2023-07-08T13:34:16;31.60;24.30
76168;DHT22;64927;48.214;16.378;2023-07-08T13:36:44;31.60;24.40
76168;DHT22;64927;48.214;16.378;2023-07-08T13:39:26;31.50;24.20
76168;DHT22;64927;48.214;16.378;2023-07-08T13:41:54;31.50;24.50
76168;DHT22;64927;48.214;16.378;2023-07-08T13:44:20;31.60;24.80
76168;DHT22;64927;48.214;16.378;2023-07-08T13:46:52;31.60;24.50
76168;DHT22;64927;48.214;16.378;2023-07-08T13:49:33;31.60;24.80
76168;DHT22;64927;48.214;16.378;2023-07-08T13:57:10;31.60;24.60
76168;DHT22;64927;48.214;16.378;2023-07-08T13:59:38;31.60;24.50
76168;DHT22;64927;48.214;16.378;2023-07-08T14:02:18;31.60;24.80
76168;DHT22;64927;48.214;16.378;2023-07-08T14:04:45;31.60;24.40
76168;DHT22;64927;48.214;16.378;2023-07-08T14:07:17;31.40;24.60
76168;DHT22;64927;48.214;16.378;2023-07-08T14:09:43;31.40;24.70
76168;DHT22;64927;48.214;16.378;2023-07-08T14:12:09;31.50;24.70
76168;DHT22;64927;48.214;16.378;2023-07-08T14:14:34;31.40;24.80
76168;DHT22;64927;48.214;16.378;2023-07-08T14:17:00;31.50;24.50
76168;DHT22;64927;48.214;16.378;2023-07-08T14:19:32;31.40;24.60
76168;DHT22;64927;48.214;16.378;2023-07-08T14:24:41;31.50;24.30
76168;DHT22;64927;48.214;16.378;2023-07-08T14:27:09;31.60;24.30
76168;DHT22;64927;48.214;16.378;2023-07-08T14:29:38;31.60;24.30
76168;DHT22;64927;48.214;16.378;2023-07-08T14:32:04;31.50;24.30
76168;DHT22;64927;48.214;16.378;2023-07-08T14:34:30;31.40;24.60
76168;DHT22;64927;48.214;16.378;2023-07-08T14:36:58;31.50;24.90
76168;DHT22;64927;48.214;16.378;2023-07-08T14:39:24;31.60;25.00
76168;DHT22;64927;48.214;16.378;2023-07-08T14:41:50;31.40;24.70
76168;DHT22;64927;48.214;16.378;2023-07-08T14:44:26;31.40;25.10
76168;DHT22;64927;48.214;16.378;2023-07-08T14:46:58;31.50;25.10
76168;DHT22;64927;48.214;16.378;2023-07-08T14:49:24;31.70;24.90
76168;DHT22;64927;48.214;16.378;2023-07-08T14:51:51;31.70;24.80
76168;DHT22;64927;48.214;16.378;2023-07-08T14:54:21;31.70;25.00
76168;DHT22;64927;48.214;16.378;2023-07-08T14:56:47;31.60;25.00
76168;DHT22;64927;48.214;16.378;2023-07-08T14:59:22;31.40;25.40
76168;DHT22;64927;48.214;16.378;2023-07-08T15:01:53;31.30;25.20
76168;DHT22;64927;48.214;16.378;2023-07-08T15:04:21;31.20;25.40
76168;DHT22;64927;48.214;16.378;2023-07-08T15:06:50;31.10;25.40
76168;DHT22;64927;48.214;16.378;2023-07-08T15:09:19;31.10;25.40
76168;DHT22;64927;48.214;16.378;2023-07-08T15:11:45;31.10;25.70
76168;DHT22;64927;48.214;16.378;2023-07-08T15:14:22;31.20;25.40
76168;DHT22;64927;48.214;16.378;2023-07-08T15:16:49;31.10;25.40
76168;DHT22;64927;48.214;16.378;2023-07-08T15:19:16;31.00;25.90
76168;DHT22;64927;48.214;16.378;2023-07-08T15:21:41;31.10;25.90
76168;DHT22;64927;48.214;16.378;2023-07-08T15:24:09;31.10;25.80
76168;DHT22;64927;48.214;16.378;2023-07-08T15:26:36;31.00;25.70
76168;DHT22;64927;48.214;16.378;2023-07-08T15:29:04;31.10;25.90
76168;DHT22;64927;48.214;16.378;2023-07-08T15:31:31;31.20;25.60
76168;DHT22;64927;48.214;16.378;2023-07-08T15:33:58;31.10;25.70
76168;DHT22;64927;48.214;16.378;2023-07-08T15:36:23;30.90;25.80
76168;DHT22;64927;48.214;16.378;2023-07-08T15:38:49;30.90;26.00
76168;DHT22;64927;48.214;16.378;2023-07-08T15:41:25;30.90;25.80
76168;DHT22;64927;48.214;16.378;2023-07-08T15:43:54;30.80;26.00
76168;DHT22;64927;48.214;16.378;2023-07-08T15:46:21;30.70;26.40
76168;DHT22;64927;48.214;16.378;2023-07-08T15:48:47;30.80;26.20
76168;DHT22;64927;48.214;16.378;2023-07-08T15:51:16;30.80;26.30
76168;DHT22;64927;48.214;16.378;2023-07-08T15:53:43;30.90;26.20
76168;DHT22;64927;48.214;16.378;2023-07-08T15:56:14;30.90;26.30
76168;DHT22;64927;48.214;16.378;2023-07-08T15:58:45;31.00;26.20
76168;DHT22;64927;48.214;16.378;2023-07-08T16:01:21;31.00;26.20
76168;DHT22;64927;48.214;16.378;2023-07-08T16:03:49;31.00;26.10
76168;DHT22;64927;48.214;16.378;2023-07-08T16:06:16;31.00;26.00
76168;DHT22;64927;48.214;16.378;2023-07-08T16:08:43;31.00;26.10
76168;DHT22;64927;48.214;16.378;2023-07-08T16:11:22;30.90;26.40
76168;DHT22;64927;48.214;16.378;2023-07-08T16:13:50;30.90;26.20
76168;DHT22;64927;48.214;16.378;2023-07-08T16:16:18;30.80;26.20
76168;DHT22;64927;48.214;16.378;2023-07-08T16:18:43;30.80;26.50
76168;DHT22;64927;48.214;16.378;2023-07-08T16:21:09;30.80;26.70
76168;DHT22;64927;48.214;16.378;2023-07-08T16:23:35;30.70;26.60